Mount Holly, North Carolina
Current Conditions -  °F | °C
As of 1:52 PM on Wednesday 26 Nov 2014 (Local Time) from KCLT Reporting Station
Broken Clouds Broken Clouds  
Wind Chill: 51°   Ceiling: 2600
Heat Index: 51°   Visibility: 10mi
Dew Point: 41°   Wind: 6mph
Humidity: 68%   Direction: 320°NW
Pressure: 30"   Gusts: NA
Location:  35.3°N, 81.02°W
Report Text: KCLT 261852Z 32005KT 10SM SCT018 BKN026 11/05 A3000 RMK AO2 SLP157 T01060050
Loading
Personal Weather Stations






























Interactive Weather Map New forecast layout! Learn more

10-Day Weather Forecast

Advertisements
Track Severe Weather on mobile